sensor_id;sensor_type;location;lat;lon;timestamp;P1;durP1;ratioP1;P2;durP2;ratioP2
50128;SDS011;36026;45.478;9.224;2022-12-18T00:01:44;21.55;;;14.82;;
50128;SDS011;36026;45.478;9.224;2022-12-18T00:04:46;24.58;;;15.13;;
50128;SDS011;36026;45.478;9.224;2022-12-18T00:07:49;22.30;;;15.27;;
50128;SDS011;36026;45.478;9.224;2022-12-18T00:10:50;21.98;;;14.95;;
50128;SDS011;36026;45.478;9.224;2022-12-18T00:13:53;21.48;;;14.90;;
50128;SDS011;36026;45.478;9.224;2022-12-18T00:16:55;26.15;;;17.52;;
50128;SDS011;36026;45.478;9.224;2022-12-18T00:19:58;21.88;;;16.13;;
50128;SDS011;36026;45.478;9.224;2022-12-18T00:23:01;21.45;;;15.48;;
50128;SDS011;36026;45.478;9.224;2022-12-18T00:26:04;25.20;;;15.85;;
50128;SDS011;36026;45.478;9.224;2022-12-18T00:29:07;23.90;;;15.82;;
50128;SDS011;36026;45.478;9.224;2022-12-18T00:32:11;23.48;;;17.55;;
50128;SDS011;36026;45.478;9.224;2022-12-18T00:35:12;24.15;;;16.98;;
50128;SDS011;36026;45.478;9.224;2022-12-18T00:38:15;23.48;;;16.75;;
50128;SDS011;36026;45.478;9.224;2022-12-18T00:41:17;24.67;;;16.63;;
50128;SDS011;36026;45.478;9.224;2022-12-18T00:44:51;26.27;;;17.50;;
50128;SDS011;36026;45.478;9.224;2022-12-18T00:47:51;26.85;;;17.30;;
50128;SDS011;36026;45.478;9.224;2022-12-18T00:50:53;25.05;;;16.52;;
50128;SDS011;36026;45.478;9.224;2022-12-18T00:53:57;22.92;;;17.45;;
50128;SDS011;36026;45.478;9.224;2022-12-18T00:56:58;25.13;;;17.02;;
50128;SDS011;36026;45.478;9.224;2022-12-18T01:00:00;24.55;;;17.02;;
50128;SDS011;36026;45.478;9.224;2022-12-18T01:03:02;24.15;;;16.42;;
50128;SDS011;36026;45.478;9.224;2022-12-18T01:06:05;25.40;;;17.23;;
50128;SDS011;36026;45.478;9.224;2022-12-18T01:09:09;24.77;;;16.33;;
50128;SDS011;36026;45.478;9.224;2022-12-18T01:12:10;23.70;;;16.98;;
50128;SDS011;36026;45.478;9.224;2022-12-18T01:15:13;29.85;;;18.33;;
50128;SDS011;36026;45.478;9.224;2022-12-18T01:18:15;24.88;;;17.50;;
50128;SDS011;36026;45.478;9.224;2022-12-18T01:21:16;31.48;;;20.52;;
50128;SDS011;36026;45.478;9.224;2022-12-18T01:24:19;29.20;;;19.00;;
50128;SDS011;36026;45.478;9.224;2022-12-18T01:27:21;33.65;;;19.67;;
50128;SDS011;36026;45.478;9.224;2022-12-18T01:30:23;34.83;;;20.88;;
50128;SDS011;36026;45.478;9.224;2022-12-18T01:33:24;43.05;;;23.27;;
50128;SDS011;36026;45.478;9.224;2022-12-18T01:36:27;37.65;;;21.13;;
50128;SDS011;36026;45.478;9.224;2022-12-18T01:39:31;40.30;;;21.63;;
50128;SDS011;36026;45.478;9.224;2022-12-18T01:42:33;46.58;;;24.02;;
50128;SDS011;36026;45.478;9.224;2022-12-18T01:45:35;71.70;;;37.47;;
50128;SDS011;36026;45.478;9.224;2022-12-18T01:48:37;69.45;;;34.40;;
50128;SDS011;36026;45.478;9.224;2022-12-18T01:51:39;55.88;;;27.83;;
50128;SDS011;36026;45.478;9.224;2022-12-18T01:54:42;44.90;;;22.83;;
50128;SDS011;36026;45.478;9.224;2022-12-18T01:57:44;84.27;;;39.60;;
50128;SDS011;36026;45.478;9.224;2022-12-18T02:00:46;50.08;;;25.48;;
50128;SDS011;36026;45.478;9.224;2022-12-18T02:03:48;50.60;;;25.02;;
50128;SDS011;36026;45.478;9.224;2022-12-18T02:06:50;47.53;;;24.42;;
50128;SDS011;36026;45.478;9.224;2022-12-18T02:09:57;53.00;;;26.65;;
50128;SDS011;36026;45.478;9.224;2022-12-18T02:13:02;54.47;;;28.05;;
50128;SDS011;36026;45.478;9.224;2022-12-18T02:16:10;51.08;;;26.52;;
50128;SDS011;36026;45.478;9.224;2022-12-18T02:19:18;49.92;;;26.13;;
50128;SDS011;36026;45.478;9.224;2022-12-18T02:22:29;49.20;;;26.45;;
50128;SDS011;36026;45.478;9.224;2022-12-18T02:29:04;48.10;;;25.25;;
50128;SDS011;36026;45.478;9.224;2022-12-18T02:32:08;45.42;;;23.85;;
50128;SDS011;36026;45.478;9.224;2022-12-18T02:35:12;52.92;;;27.33;;
50128;SDS011;36026;45.478;9.224;2022-12-18T02:38:16;51.22;;;26.10;;
50128;SDS011;36026;45.478;9.224;2022-12-18T02:41:19;52.22;;;27.13;;
50128;SDS011;36026;45.478;9.224;2022-12-18T02:47:25;50.05;;;26.63;;
50128;SDS011;36026;45.478;9.224;2022-12-18T02:50:32;51.67;;;26.60;;
50128;SDS011;36026;45.478;9.224;2022-12-18T02:53:36;52.42;;;27.52;;
50128;SDS011;36026;45.478;9.224;2022-12-18T02:56:45;58.55;;;28.15;;
50128;SDS011;36026;45.478;9.224;2022-12-18T02:59:54;48.45;;;25.83;;
50128;SDS011;36026;45.478;9.224;2022-12-18T03:02:59;47.60;;;26.25;;
50128;SDS011;36026;45.478;9.224;2022-12-18T03:06:05;48.25;;;26.08;;
50128;SDS011;36026;45.478;9.224;2022-12-18T03:09:10;48.50;;;26.15;;
50128;SDS011;36026;45.478;9.224;2022-12-18T03:12:19;47.63;;;25.58;;
50128;SDS011;36026;45.478;9.224;2022-12-18T03:15:26;48.33;;;25.23;;
50128;SDS011;36026;45.478;9.224;2022-12-18T03:21:33;46.90;;;25.67;;
50128;SDS011;36026;45.478;9.224;2022-12-18T03:24:36;51.47;;;25.17;;
50128;SDS011;36026;45.478;9.224;2022-12-18T03:27:42;57.23;;;27.17;;
50128;SDS011;36026;45.478;9.224;2022-12-18T03:30:48;53.22;;;27.27;;
50128;SDS011;36026;45.478;9.224;2022-12-18T03:33:52;48.22;;;26.92;;
50128;SDS011;36026;45.478;9.224;2022-12-18T03:36:55;50.72;;;27.02;;
50128;SDS011;36026;45.478;9.224;2022-12-18T03:39:58;52.85;;;27.08;;
50128;SDS011;36026;45.478;9.224;2022-12-18T03:43:02;49.03;;;25.20;;
50128;SDS011;36026;45.478;9.224;2022-12-18T03:46:06;51.78;;;26.35;;
50128;SDS011;36026;45.478;9.224;2022-12-18T03:49:11;45.15;;;24.50;;
50128;SDS011;36026;45.478;9.224;2022-12-18T03:52:17;49.50;;;26.55;;
50128;SDS011;36026;45.478;9.224;2022-12-18T03:55:19;50.65;;;26.60;;
50128;SDS011;36026;45.478;9.224;2022-12-18T03:58:24;50.30;;;24.60;;
50128;SDS011;36026;45.478;9.224;2022-12-18T04:01:31;50.03;;;27.90;;
50128;SDS011;36026;45.478;9.224;2022-12-18T04:04:36;49.78;;;25.88;;
50128;SDS011;36026;45.478;9.224;2022-12-18T04:07:38;50.13;;;27.08;;
50128;SDS011;36026;45.478;9.224;2022-12-18T04:10:41;49.00;;;26.10;;
50128;SDS011;36026;45.478;9.224;2022-12-18T04:13:44;55.60;;;27.77;;
50128;SDS011;36026;45.478;9.224;2022-12-18T04:16:46;53.20;;;28.00;;
50128;SDS011;36026;45.478;9.224;2022-12-18T04:19:48;56.97;;;27.70;;
50128;SDS011;36026;45.478;9.224;2022-12-18T04:22:49;55.05;;;26.25;;
50128;SDS011;36026;45.478;9.224;2022-12-18T04:25:51;52.72;;;27.45;;
50128;SDS011;36026;45.478;9.224;2022-12-18T04:28:54;53.75;;;27.42;;
50128;SDS011;36026;45.478;9.224;2022-12-18T04:31:55;54.55;;;27.52;;
50128;SDS011;36026;45.478;9.224;2022-12-18T04:34:57;50.90;;;26.95;;
50128;SDS011;36026;45.478;9.224;2022-12-18T04:37:59;56.95;;;28.08;;
50128;SDS011;36026;45.478;9.224;2022-12-18T04:41:00;56.08;;;26.75;;
50128;SDS011;36026;45.478;9.224;2022-12-18T04:44:04;59.75;;;28.38;;
50128;SDS011;36026;45.478;9.224;2022-12-18T04:47:05;57.93;;;27.83;;
50128;SDS011;36026;45.478;9.224;2022-12-18T04:50:07;60.42;;;29.10;;
50128;SDS011;36026;45.478;9.224;2022-12-18T04:53:09;69.10;;;29.70;;
50128;SDS011;36026;45.478;9.224;2022-12-18T04:56:11;63.03;;;28.63;;
50128;SDS011;36026;45.478;9.224;2022-12-18T04:59:15;76.55;;;30.73;;
50128;SDS011;36026;45.478;9.224;2022-12-18T05:02:17;82.80;;;33.40;;
50128;SDS011;36026;45.478;9.224;2022-12-18T05:05:19;68.03;;;29.35;;
50128;SDS011;36026;45.478;9.224;2022-12-18T05:08:20;76.22;;;32.17;;
50128;SDS011;36026;45.478;9.224;2022-12-18T05:11:22;74.40;;;30.42;;
50128;SDS011;36026;45.478;9.224;2022-12-18T05:14:25;77.00;;;32.67;;
50128;SDS011;36026;45.478;9.224;2022-12-18T05:17:27;87.70;;;31.95;;
50128;SDS011;36026;45.478;9.224;2022-12-18T05:20:29;88.25;;;32.45;;
50128;SDS011;36026;45.478;9.224;2022-12-18T05:23:31;83.30;;;32.25;;
50128;SDS011;36026;45.478;9.224;2022-12-18T05:26:35;82.68;;;32.00;;
50128;SDS011;36026;45.478;9.224;2022-12-18T05:29:38;74.53;;;30.77;;
50128;SDS011;36026;45.478;9.224;2022-12-18T05:32:40;85.43;;;31.83;;
50128;SDS011;36026;45.478;9.224;2022-12-18T05:35:42;75.57;;;29.52;;
50128;SDS011;36026;45.478;9.224;2022-12-18T05:38:44;79.47;;;30.88;;
50128;SDS011;36026;45.478;9.224;2022-12-18T05:41:46;72.97;;;29.52;;
50128;SDS011;36026;45.478;9.224;2022-12-18T05:44:49;72.10;;;31.27;;
50128;SDS011;36026;45.478;9.224;2022-12-18T05:47:50;69.15;;;29.27;;
50128;SDS011;36026;45.478;9.224;2022-12-18T05:50:52;71.93;;;27.77;;
50128;SDS011;36026;45.478;9.224;2022-12-18T05:53:54;69.95;;;29.73;;
50128;SDS011;36026;45.478;9.224;2022-12-18T05:56:56;74.65;;;29.88;;
50128;SDS011;36026;45.478;9.224;2022-12-18T05:59:59;67.18;;;29.02;;
50128;SDS011;36026;45.478;9.224;2022-12-18T06:03:00;75.20;;;31.08;;
50128;SDS011;36026;45.478;9.224;2022-12-18T06:06:03;70.55;;;29.63;;
50128;SDS011;36026;45.478;9.224;2022-12-18T06:09:05;69.65;;;28.25;;
50128;SDS011;36026;45.478;9.224;2022-12-18T06:12:09;71.35;;;28.48;;
50128;SDS011;36026;45.478;9.224;2022-12-18T06:15:12;67.35;;;29.33;;
50128;SDS011;36026;45.478;9.224;2022-12-18T06:18:14;68.40;;;28.98;;
50128;SDS011;36026;45.478;9.224;2022-12-18T06:21:15;68.68;;;29.98;;
50128;SDS011;36026;45.478;9.224;2022-12-18T06:24:17;65.93;;;28.65;;
50128;SDS011;36026;45.478;9.224;2022-12-18T06:27:19;62.97;;;28.42;;
50128;SDS011;36026;45.478;9.224;2022-12-18T06:30:22;65.40;;;28.33;;
50128;SDS011;36026;45.478;9.224;2022-12-18T06:33:25;61.60;;;29.08;;
50128;SDS011;36026;45.478;9.224;2022-12-18T06:36:27;65.78;;;28.55;;
50128;SDS011;36026;45.478;9.224;2022-12-18T06:39:29;63.40;;;28.73;;
50128;SDS011;36026;45.478;9.224;2022-12-18T06:42:31;66.25;;;29.02;;
50128;SDS011;36026;45.478;9.224;2022-12-18T06:45:34;65.82;;;28.15;;
50128;SDS011;36026;45.478;9.224;2022-12-18T06:48:36;69.65;;;30.05;;
50128;SDS011;36026;45.478;9.224;2022-12-18T06:51:37;68.18;;;29.50;;
50128;SDS011;36026;45.478;9.224;2022-12-18T06:54:39;64.38;;;28.33;;
50128;SDS011;36026;45.478;9.224;2022-12-18T06:57:41;68.80;;;29.25;;
50128;SDS011;36026;45.478;9.224;2022-12-18T07:00:44;69.10;;;30.30;;
50128;SDS011;36026;45.478;9.224;2022-12-18T07:03:46;68.68;;;28.17;;
50128;SDS011;36026;45.478;9.224;2022-12-18T07:06:47;69.30;;;29.88;;
50128;SDS011;36026;45.478;9.224;2022-12-18T07:09:49;71.50;;;29.70;;
50128;SDS011;36026;45.478;9.224;2022-12-18T07:12:51;75.68;;;31.13;;
50128;SDS011;36026;45.478;9.224;2022-12-18T07:15:54;74.53;;;31.00;;
50128;SDS011;36026;45.478;9.224;2022-12-18T07:18:55;73.80;;;30.17;;
50128;SDS011;36026;45.478;9.224;2022-12-18T07:21:57;68.32;;;29.52;;
50128;SDS011;36026;45.478;9.224;2022-12-18T07:24:59;77.50;;;30.77;;
50128;SDS011;36026;45.478;9.224;2022-12-18T07:28:00;72.70;;;29.33;;
50128;SDS011;36026;45.478;9.224;2022-12-18T07:31:04;68.97;;;28.45;;
50128;SDS011;36026;45.478;9.224;2022-12-18T07:34:09;77.43;;;31.80;;
50128;SDS011;36026;45.478;9.224;2022-12-18T07:37:11;72.43;;;29.02;;
50128;SDS011;36026;45.478;9.224;2022-12-18T07:40:13;79.90;;;29.85;;
50128;SDS011;36026;45.478;9.224;2022-12-18T07:43:14;79.88;;;30.70;;
50128;SDS011;36026;45.478;9.224;2022-12-18T07:46:17;79.82;;;30.85;;
50128;SDS011;36026;45.478;9.224;2022-12-18T07:49:19;81.13;;;30.50;;
50128;SDS011;36026;45.478;9.224;2022-12-18T07:52:21;79.55;;;30.48;;
50128;SDS011;36026;45.478;9.224;2022-12-18T07:55:23;80.22;;;30.08;;
50128;SDS011;36026;45.478;9.224;2022-12-18T07:58:24;72.03;;;30.05;;
50128;SDS011;36026;45.478;9.224;2022-12-18T08:01:27;73.95;;;29.33;;
50128;SDS011;36026;45.478;9.224;2022-12-18T08:04:29;78.25;;;30.83;;
50128;SDS011;36026;45.478;9.224;2022-12-18T08:07:31;65.63;;;26.67;;
50128;SDS011;36026;45.478;9.224;2022-12-18T08:10:32;69.53;;;28.40;;
50128;SDS011;36026;45.478;9.224;2022-12-18T08:13:34;61.88;;;27.02;;
50128;SDS011;36026;45.478;9.224;2022-12-18T08:16:37;69.32;;;27.38;;
50128;SDS011;36026;45.478;9.224;2022-12-18T08:19:39;73.73;;;27.87;;
50128;SDS011;36026;45.478;9.224;2022-12-18T08:22:41;68.68;;;26.92;;
50128;SDS011;36026;45.478;9.224;2022-12-18T08:25:43;70.95;;;28.77;;
50128;SDS011;36026;45.478;9.224;2022-12-18T08:28:45;70.30;;;28.75;;
50128;SDS011;36026;45.478;9.224;2022-12-18T08:31:48;63.70;;;27.30;;
50128;SDS011;36026;45.478;9.224;2022-12-18T08:34:49;70.32;;;28.60;;
50128;SDS011;36026;45.478;9.224;2022-12-18T08:37:51;62.47;;;27.58;;
50128;SDS011;36026;45.478;9.224;2022-12-18T08:40:57;63.53;;;27.52;;
50128;SDS011;36026;45.478;9.224;2022-12-18T08:43:59;60.75;;;27.58;;
50128;SDS011;36026;45.478;9.224;2022-12-18T08:47:20;58.03;;;28.58;;
50128;SDS011;36026;45.478;9.224;2022-12-18T08:50:21;53.47;;;25.83;;
50128;SDS011;36026;45.478;9.224;2022-12-18T08:53:23;54.70;;;24.13;;
50128;SDS011;36026;45.478;9.224;2022-12-18T08:56:27;52.10;;;25.43;;
50128;SDS011;36026;45.478;9.224;2022-12-18T08:59:29;49.00;;;24.80;;
50128;SDS011;36026;45.478;9.224;2022-12-18T09:02:32;58.85;;;26.17;;
50128;SDS011;36026;45.478;9.224;2022-12-18T09:05:34;53.25;;;26.15;;
50128;SDS011;36026;45.478;9.224;2022-12-18T09:08:36;52.10;;;25.00;;
50128;SDS011;36026;45.478;9.224;2022-12-18T09:11:37;55.30;;;26.00;;
50128;SDS011;36026;45.478;9.224;2022-12-18T09:14:39;50.00;;;23.65;;
50128;SDS011;36026;45.478;9.224;2022-12-18T09:17:42;60.88;;;25.77;;
50128;SDS011;36026;45.478;9.224;2022-12-18T09:20:44;50.88;;;24.77;;
50128;SDS011;36026;45.478;9.224;2022-12-18T09:23:48;45.80;;;23.02;;
50128;SDS011;36026;45.478;9.224;2022-12-18T09:26:52;49.22;;;25.23;;
50128;SDS011;36026;45.478;9.224;2022-12-18T09:29:54;48.45;;;23.92;;
50128;SDS011;36026;45.478;9.224;2022-12-18T09:32:57;49.95;;;25.40;;
50128;SDS011;36026;45.478;9.224;2022-12-18T09:36:00;48.78;;;24.75;;
50128;SDS011;36026;45.478;9.224;2022-12-18T09:39:02;44.43;;;23.87;;
50128;SDS011;36026;45.478;9.224;2022-12-18T09:42:04;47.97;;;24.33;;
50128;SDS011;36026;45.478;9.224;2022-12-18T09:45:07;50.13;;;24.55;;
50128;SDS011;36026;45.478;9.224;2022-12-18T09:48:16;42.65;;;23.50;;
50128;SDS011;36026;45.478;9.224;2022-12-18T09:51:21;50.33;;;24.73;;
50128;SDS011;36026;45.478;9.224;2022-12-18T09:54:25;46.47;;;24.02;;
50128;SDS011;36026;45.478;9.224;2022-12-18T09:57:30;45.55;;;23.75;;
50128;SDS011;36026;45.478;9.224;2022-12-18T10:00:34;51.83;;;25.25;;
50128;SDS011;36026;45.478;9.224;2022-12-18T10:03:37;49.90;;;24.95;;
50128;SDS011;36026;45.478;9.224;2022-12-18T10:06:40;46.08;;;24.23;;
50128;SDS011;36026;45.478;9.224;2022-12-18T10:09:46;47.45;;;23.10;;
50128;SDS011;36026;45.478;9.224;2022-12-18T10:12:54;42.05;;;23.35;;
50128;SDS011;36026;45.478;9.224;2022-12-18T10:16:04;45.00;;;23.00;;
50128;SDS011;36026;45.478;9.224;2022-12-18T10:19:21;47.87;;;24.67;;
50128;SDS011;36026;45.478;9.224;2022-12-18T10:25:37;44.03;;;24.08;;
50128;SDS011;36026;45.478;9.224;2022-12-18T10:28:43;43.60;;;23.42;;
50128;SDS011;36026;45.478;9.224;2022-12-18T10:31:45;44.42;;;23.60;;
50128;SDS011;36026;45.478;9.224;2022-12-18T10:34:48;50.50;;;25.08;;
50128;SDS011;36026;45.478;9.224;2022-12-18T10:41:08;45.15;;;24.45;;
50128;SDS011;36026;45.478;9.224;2022-12-18T10:44:26;47.03;;;23.25;;
50128;SDS011;36026;45.478;9.224;2022-12-18T10:47:28;48.95;;;25.40;;
50128;SDS011;36026;45.478;9.224;2022-12-18T10:50:31;43.30;;;23.83;;
50128;SDS011;36026;45.478;9.224;2022-12-18T10:53:36;49.47;;;25.52;;
50128;SDS011;36026;45.478;9.224;2022-12-18T10:56:38;47.20;;;23.88;;
50128;SDS011;36026;45.478;9.224;2022-12-18T10:59:49;44.90;;;24.17;;
50128;SDS011;36026;45.478;9.224;2022-12-18T11:02:52;44.92;;;24.92;;
50128;SDS011;36026;45.478;9.224;2022-12-18T11:06:02;51.40;;;25.88;;
50128;SDS011;36026;45.478;9.224;2022-12-18T11:09:07;50.45;;;26.60;;
50128;SDS011;36026;45.478;9.224;2022-12-18T11:12:21;47.83;;;24.83;;
50128;SDS011;36026;45.478;9.224;2022-12-18T11:15:25;48.10;;;24.33;;
50128;SDS011;36026;45.478;9.224;2022-12-18T11:18:29;41.30;;;24.08;;
50128;SDS011;36026;45.478;9.224;2022-12-18T11:21:39;46.47;;;24.00;;
50128;SDS011;36026;45.478;9.224;2022-12-18T11:24:41;41.15;;;24.45;;
50128;SDS011;36026;45.478;9.224;2022-12-18T11:27:47;42.78;;;23.75;;
50128;SDS011;36026;45.478;9.224;2022-12-18T11:30:49;40.63;;;23.08;;
50128;SDS011;36026;45.478;9.224;2022-12-18T11:34:11;41.47;;;23.60;;
50128;SDS011;36026;45.478;9.224;2022-12-18T11:37:16;38.22;;;22.20;;
50128;SDS011;36026;45.478;9.224;2022-12-18T11:40:20;36.83;;;22.90;;
50128;SDS011;36026;45.478;9.224;2022-12-18T11:43:28;34.95;;;20.52;;
50128;SDS011;36026;45.478;9.224;2022-12-18T11:46:33;30.77;;;20.20;;
50128;SDS011;36026;45.478;9.224;2022-12-18T11:49:38;30.27;;;19.40;;
50128;SDS011;36026;45.478;9.224;2022-12-18T11:52:43;30.42;;;19.45;;
50128;SDS011;36026;45.478;9.224;2022-12-18T11:59:08;30.25;;;19.42;;
50128;SDS011;36026;45.478;9.224;2022-12-18T12:02:21;27.15;;;17.25;;
50128;SDS011;36026;45.478;9.224;2022-12-18T12:05:43;27.77;;;17.90;;
50128;SDS011;36026;45.478;9.224;2022-12-18T12:08:55;22.17;;;15.43;;
50128;SDS011;36026;45.478;9.224;2022-12-18T12:12:05;26.73;;;17.25;;
50128;SDS011;36026;45.478;9.224;2022-12-18T12:15:18;23.83;;;15.27;;
50128;SDS011;36026;45.478;9.224;2022-12-18T12:18:27;28.30;;;16.83;;
50128;SDS011;36026;45.478;9.224;2022-12-18T12:21:34;24.73;;;16.08;;
50128;SDS011;36026;45.478;9.224;2022-12-18T12:24:43;24.63;;;16.30;;
50128;SDS011;36026;45.478;9.224;2022-12-18T12:27:53;24.85;;;16.08;;
50128;SDS011;36026;45.478;9.224;2022-12-18T12:31:03;27.05;;;17.35;;
50128;SDS011;36026;45.478;9.224;2022-12-18T12:34:09;27.75;;;17.95;;
50128;SDS011;36026;45.478;9.224;2022-12-18T12:37:19;24.92;;;17.00;;
50128;SDS011;36026;45.478;9.224;2022-12-18T12:40:28;31.08;;;17.45;;
50128;SDS011;36026;45.478;9.224;2022-12-18T12:43:33;26.58;;;17.75;;
50128;SDS011;36026;45.478;9.224;2022-12-18T12:46:39;28.13;;;18.00;;
50128;SDS011;36026;45.478;9.224;2022-12-18T12:49:42;26.90;;;17.27;;
50128;SDS011;36026;45.478;9.224;2022-12-18T12:52:48;27.15;;;18.13;;
50128;SDS011;36026;45.478;9.224;2022-12-18T12:55:54;31.52;;;20.58;;
50128;SDS011;36026;45.478;9.224;2022-12-18T12:58:58;36.58;;;20.00;;
50128;SDS011;36026;45.478;9.224;2022-12-18T13:02:06;30.70;;;18.33;;
50128;SDS011;36026;45.478;9.224;2022-12-18T13:05:17;31.48;;;18.80;;
50128;SDS011;36026;45.478;9.224;2022-12-18T13:08:24;31.80;;;19.65;;
50128;SDS011;36026;45.478;9.224;2022-12-18T13:11:32;35.55;;;22.75;;
50128;SDS011;36026;45.478;9.224;2022-12-18T13:14:54;36.15;;;22.48;;
50128;SDS011;36026;45.478;9.224;2022-12-18T13:18:14;39.63;;;24.27;;
50128;SDS011;36026;45.478;9.224;2022-12-18T13:21:20;36.65;;;23.98;;
50128;SDS011;36026;45.478;9.224;2022-12-18T13:24:24;39.03;;;23.40;;
50128;SDS011;36026;45.478;9.224;2022-12-18T13:27:49;40.85;;;23.98;;
50128;SDS011;36026;45.478;9.224;2022-12-18T13:30:58;42.97;;;25.08;;
50128;SDS011;36026;45.478;9.224;2022-12-18T13:34:09;42.05;;;25.33;;
50128;SDS011;36026;45.478;9.224;2022-12-18T13:40:55;39.72;;;25.35;;
50128;SDS011;36026;45.478;9.224;2022-12-18T13:44:11;46.80;;;26.85;;
50128;SDS011;36026;45.478;9.224;2022-12-18T13:47:24;48.22;;;27.25;;
50128;SDS011;36026;45.478;9.224;2022-12-18T13:50:28;41.10;;;25.77;;
50128;SDS011;36026;45.478;9.224;2022-12-18T13:53:31;45.70;;;27.92;;
50128;SDS011;36026;45.478;9.224;2022-12-18T13:56:42;43.97;;;26.08;;
50128;SDS011;36026;45.478;9.224;2022-12-18T13:59:46;42.78;;;26.70;;
50128;SDS011;36026;45.478;9.224;2022-12-18T14:02:48;43.75;;;27.27;;
50128;SDS011;36026;45.478;9.224;2022-12-18T14:05:54;43.13;;;25.48;;
50128;SDS011;36026;45.478;9.224;2022-12-18T14:08:58;40.28;;;25.58;;
50128;SDS011;36026;45.478;9.224;2022-12-18T14:11:59;40.08;;;25.38;;
50128;SDS011;36026;45.478;9.224;2022-12-18T14:15:23;37.85;;;24.85;;
50128;SDS011;36026;45.478;9.224;2022-12-18T14:18:29;39.60;;;25.35;;
50128;SDS011;36026;45.478;9.224;2022-12-18T14:21:35;43.63;;;26.35;;
50128;SDS011;36026;45.478;9.224;2022-12-18T14:24:38;42.45;;;25.50;;
50128;SDS011;36026;45.478;9.224;2022-12-18T14:27:41;40.13;;;25.83;;
50128;SDS011;36026;45.478;9.224;2022-12-18T14:30:45;40.87;;;25.77;;
50128;SDS011;36026;45.478;9.224;2022-12-18T14:33:47;42.47;;;26.60;;
50128;SDS011;36026;45.478;9.224;2022-12-18T14:36:51;47.63;;;26.85;;
50128;SDS011;36026;45.478;9.224;2022-12-18T14:39:54;43.78;;;26.80;;
50128;SDS011;36026;45.478;9.224;2022-12-18T14:42:58;41.47;;;26.42;;
50128;SDS011;36026;45.478;9.224;2022-12-18T14:46:00;37.05;;;24.20;;
50128;SDS011;36026;45.478;9.224;2022-12-18T14:49:03;38.63;;;23.95;;
50128;SDS011;36026;45.478;9.224;2022-12-18T14:52:24;43.30;;;25.02;;
50128;SDS011;36026;45.478;9.224;2022-12-18T14:55:28;38.03;;;24.02;;
50128;SDS011;36026;45.478;9.224;2022-12-18T14:58:29;40.33;;;24.48;;
50128;SDS011;36026;45.478;9.224;2022-12-18T15:01:33;42.63;;;25.90;;
50128;SDS011;36026;45.478;9.224;2022-12-18T15:04:36;42.67;;;25.10;;
50128;SDS011;36026;45.478;9.224;2022-12-18T15:07:40;44.58;;;27.65;;
50128;SDS011;36026;45.478;9.224;2022-12-18T15:10:46;46.55;;;29.05;;
50128;SDS011;36026;45.478;9.224;2022-12-18T15:13:48;40.10;;;24.85;;
50128;SDS011;36026;45.478;9.224;2022-12-18T15:16:52;41.78;;;25.00;;
50128;SDS011;36026;45.478;9.224;2022-12-18T15:22:59;43.22;;;25.60;;
50128;SDS011;36026;45.478;9.224;2022-12-18T15:26:02;38.83;;;23.50;;
50128;SDS011;36026;45.478;9.224;2022-12-18T15:29:04;38.60;;;22.58;;
50128;SDS011;36026;45.478;9.224;2022-12-18T15:32:19;39.08;;;24.27;;
50128;SDS011;36026;45.478;9.224;2022-12-18T15:35:22;36.00;;;22.55;;
50128;SDS011;36026;45.478;9.224;2022-12-18T15:38:25;44.05;;;25.02;;
50128;SDS011;36026;45.478;9.224;2022-12-18T15:41:26;39.95;;;23.60;;
50128;SDS011;36026;45.478;9.224;2022-12-18T15:44:29;45.28;;;25.52;;
50128;SDS011;36026;45.478;9.224;2022-12-18T15:47:32;47.00;;;27.20;;
50128;SDS011;36026;45.478;9.224;2022-12-18T15:50:34;45.13;;;24.77;;
50128;SDS011;36026;45.478;9.224;2022-12-18T15:53:36;48.63;;;28.17;;
50128;SDS011;36026;45.478;9.224;2022-12-18T15:56:37;53.45;;;28.80;;
50128;SDS011;36026;45.478;9.224;2022-12-18T15:59:57;51.13;;;28.48;;
50128;SDS011;36026;45.478;9.224;2022-12-18T16:03:00;44.50;;;27.30;;
50128;SDS011;36026;45.478;9.224;2022-12-18T16:06:04;44.40;;;25.58;;
50128;SDS011;36026;45.478;9.224;2022-12-18T16:09:07;47.28;;;28.25;;
50128;SDS011;36026;45.478;9.224;2022-12-18T16:12:14;51.85;;;29.30;;
50128;SDS011;36026;45.478;9.224;2022-12-18T16:15:17;47.53;;;27.67;;
50128;SDS011;36026;45.478;9.224;2022-12-18T16:18:20;42.90;;;24.33;;
50128;SDS011;36026;45.478;9.224;2022-12-18T16:21:22;39.58;;;24.25;;
50128;SDS011;36026;45.478;9.224;2022-12-18T16:24:25;40.15;;;24.38;;
50128;SDS011;36026;45.478;9.224;2022-12-18T16:30:30;38.05;;;22.92;;
50128;SDS011;36026;45.478;9.224;2022-12-18T16:33:34;42.27;;;24.60;;
50128;SDS011;36026;45.478;9.224;2022-12-18T16:36:36;42.58;;;24.55;;
50128;SDS011;36026;45.478;9.224;2022-12-18T16:39:38;43.17;;;25.10;;
50128;SDS011;36026;45.478;9.224;2022-12-18T16:42:41;45.85;;;26.92;;
50128;SDS011;36026;45.478;9.224;2022-12-18T16:45:43;43.45;;;25.27;;
50128;SDS011;36026;45.478;9.224;2022-12-18T16:48:48;43.40;;;26.20;;
50128;SDS011;36026;45.478;9.224;2022-12-18T16:51:50;42.55;;;26.50;;
50128;SDS011;36026;45.478;9.224;2022-12-18T16:54:52;45.55;;;26.17;;
50128;SDS011;36026;45.478;9.224;2022-12-18T16:57:54;41.60;;;25.63;;
50128;SDS011;36026;45.478;9.224;2022-12-18T17:00:55;46.88;;;28.27;;
50128;SDS011;36026;45.478;9.224;2022-12-18T17:03:59;46.25;;;26.95;;
50128;SDS011;36026;45.478;9.224;2022-12-18T17:10:05;41.03;;;23.88;;
50128;SDS011;36026;45.478;9.224;2022-12-18T17:13:07;44.63;;;25.17;;
50128;SDS011;36026;45.478;9.224;2022-12-18T17:16:09;47.45;;;26.33;;
50128;SDS011;36026;45.478;9.224;2022-12-18T17:19:12;40.20;;;25.17;;
50128;SDS011;36026;45.478;9.224;2022-12-18T17:22:16;40.65;;;25.90;;
50128;SDS011;36026;45.478;9.224;2022-12-18T17:25:18;46.80;;;26.77;;
50128;SDS011;36026;45.478;9.224;2022-12-18T17:31:25;43.97;;;25.17;;
50128;SDS011;36026;45.478;9.224;2022-12-18T17:34:30;45.42;;;25.58;;
50128;SDS011;36026;45.478;9.224;2022-12-18T17:37:32;50.33;;;28.38;;
50128;SDS011;36026;45.478;9.224;2022-12-18T17:40:33;47.47;;;27.27;;
50128;SDS011;36026;45.478;9.224;2022-12-18T17:43:35;49.13;;;27.85;;
50128;SDS011;36026;45.478;9.224;2022-12-18T17:46:44;46.92;;;26.95;;
50128;SDS011;36026;45.478;9.224;2022-12-18T17:49:48;45.17;;;27.00;;
50128;SDS011;36026;45.478;9.224;2022-12-18T17:52:54;45.63;;;27.98;;
50128;SDS011;36026;45.478;9.224;2022-12-18T17:55:56;49.08;;;27.73;;
50128;SDS011;36026;45.478;9.224;2022-12-18T17:59:00;48.17;;;27.83;;
50128;SDS011;36026;45.478;9.224;2022-12-18T18:02:02;47.70;;;27.95;;
50128;SDS011;36026;45.478;9.224;2022-12-18T18:05:07;47.83;;;28.38;;
50128;SDS011;36026;45.478;9.224;2022-12-18T18:08:09;46.80;;;29.52;;
50128;SDS011;36026;45.478;9.224;2022-12-18T18:11:11;47.53;;;26.83;;
50128;SDS011;36026;45.478;9.224;2022-12-18T18:14:28;47.83;;;28.08;;
50128;SDS011;36026;45.478;9.224;2022-12-18T18:17:29;47.05;;;27.85;;
50128;SDS011;36026;45.478;9.224;2022-12-18T18:20:33;48.17;;;28.83;;
50128;SDS011;36026;45.478;9.224;2022-12-18T18:23:34;49.22;;;29.85;;
50128;SDS011;36026;45.478;9.224;2022-12-18T18:26:36;52.35;;;29.55;;
50128;SDS011;36026;45.478;9.224;2022-12-18T18:29:38;49.30;;;28.58;;
50128;SDS011;36026;45.478;9.224;2022-12-18T18:32:40;54.80;;;31.95;;